sensor_id;sensor_type;location;lat;lon;timestamp;pressure;altitude;pressure_sealevel;temperature;humidity
61742;BME280;47650;49.848;9.620;2023-12-20T00:01:02;99552.31;;;5.82;100.00
61742;BME280;47650;49.848;9.620;2023-12-20T00:03:27;99574.06;;;5.73;100.00
61742;BME280;47650;49.848;9.620;2023-12-20T00:05:52;99554.06;;;5.71;100.00
61742;BME280;47650;49.848;9.620;2023-12-20T00:08:18;99564.97;;;5.77;100.00
61742;BME280;47650;49.848;9.620;2023-12-20T00:10:44;99536.69;;;5.57;100.00
61742;BME280;47650;49.848;9.620;2023-12-20T00:13:10;99548.59;;;5.74;100.00
61742;BME280;47650;49.848;9.620;2023-12-20T00:15:36;99549.63;;;6.07;100.00
61742;BME280;47650;49.848;9.620;2023-12-20T00:18:02;99553.00;;;5.73;100.00
61742;BME280;47650;49.848;9.620;2023-12-20T00:20:28;99557.06;;;5.66;100.00
61742;BME280;47650;49.848;9.620;2023-12-20T00:22:56;99548.03;;;5.93;100.00
61742;BME280;47650;49.848;9.620;2023-12-20T00:25:24;99548.47;;;5.75;100.00
61742;BME280;47650;49.848;9.620;2023-12-20T00:27:50;99521.91;;;5.67;100.00
61742;BME280;47650;49.848;9.620;2023-12-20T00:30:15;99531.81;;;5.63;100.00
61742;BME280;47650;49.848;9.620;2023-12-20T00:32:40;99543.03;;;5.54;100.00
61742;BME280;47650;49.848;9.620;2023-12-20T00:35:12;99540.63;;;5.51;100.00
61742;BME280;47650;49.848;9.620;2023-12-20T00:37:37;99539.81;;;5.51;100.00
61742;BME280;47650;49.848;9.620;2023-12-20T00:40:03;99511.91;;;5.83;100.00
61742;BME280;47650;49.848;9.620;2023-12-20T00:42:28;99513.44;;;5.39;100.00
61742;BME280;47650;49.848;9.620;2023-12-20T00:44:54;99503.00;;;5.62;100.00
61742;BME280;47650;49.848;9.620;2023-12-20T00:47:19;99483.78;;;5.26;100.00
61742;BME280;47650;49.848;9.620;2023-12-20T00:49:44;99485.44;;;5.16;100.00
61742;BME280;47650;49.848;9.620;2023-12-20T00:52:09;99508.50;;;5.59;100.00
61742;BME280;47650;49.848;9.620;2023-12-20T00:54:35;99517.13;;;5.61;100.00
61742;BME280;47650;49.848;9.620;2023-12-20T00:57:00;99515.97;;;5.41;100.00
61742;BME280;47650;49.848;9.620;2023-12-20T00:59:25;99520.91;;;5.45;100.00
61742;BME280;47650;49.848;9.620;2023-12-20T01:01:50;99507.81;;;5.79;100.00
61742;BME280;47650;49.848;9.620;2023-12-20T01:04:16;99507.53;;;5.49;100.00
61742;BME280;47650;49.848;9.620;2023-12-20T01:06:41;99501.56;;;5.58;100.00
61742;BME280;47650;49.848;9.620;2023-12-20T01:09:06;99470.66;;;5.26;100.00
61742;BME280;47650;49.848;9.620;2023-12-20T01:11:32;99461.56;;;5.30;100.00
61742;BME280;47650;49.848;9.620;2023-12-20T01:13:57;99482.44;;;5.56;100.00
61742;BME280;47650;49.848;9.620;2023-12-20T01:16:22;99494.66;;;5.68;100.00
61742;BME280;47650;49.848;9.620;2023-12-20T01:18:48;99491.31;;;5.77;100.00
61742;BME280;47650;49.848;9.620;2023-12-20T01:21:13;99477.63;;;5.38;100.00
61742;BME280;47650;49.848;9.620;2023-12-20T01:23:38;99482.44;;;5.67;100.00
61742;BME280;47650;49.848;9.620;2023-12-20T01:26:03;99466.84;;;5.30;100.00
61742;BME280;47650;49.848;9.620;2023-12-20T01:28:30;99489.53;;;5.31;100.00
61742;BME280;47650;49.848;9.620;2023-12-20T01:30:57;99491.03;;;5.58;100.00
61742;BME280;47650;49.848;9.620;2023-12-20T01:33:22;99492.84;;;5.69;100.00
61742;BME280;47650;49.848;9.620;2023-12-20T01:35:49;99482.44;;;5.20;100.00
61742;BME280;47650;49.848;9.620;2023-12-20T01:38:14;99476.47;;;5.65;100.00
61742;BME280;47650;49.848;9.620;2023-12-20T01:40:40;99494.81;;;5.42;100.00
61742;BME280;47650;49.848;9.620;2023-12-20T01:43:08;99494.59;;;5.45;100.00
61742;BME280;47650;49.848;9.620;2023-12-20T01:45:34;99463.44;;;5.17;100.00
61742;BME280;47650;49.848;9.620;2023-12-20T01:47:59;99482.88;;;5.50;100.00
61742;BME280;47650;49.848;9.620;2023-12-20T01:50:25;99476.19;;;5.45;100.00
61742;BME280;47650;49.848;9.620;2023-12-20T01:52:52;99475.53;;;5.19;100.00
61742;BME280;47650;49.848;9.620;2023-12-20T01:55:21;99479.53;;;5.12;100.00
61742;BME280;47650;49.848;9.620;2023-12-20T01:57:47;99485.03;;;5.09;100.00
61742;BME280;47650;49.848;9.620;2023-12-20T02:00:13;99451.50;;;4.88;100.00
61742;BME280;47650;49.848;9.620;2023-12-20T02:02:40;99442.44;;;4.93;100.00
61742;BME280;47650;49.848;9.620;2023-12-20T02:05:06;99487.03;;;5.30;100.00
61742;BME280;47650;49.848;9.620;2023-12-20T02:07:32;99442.13;;;5.08;100.00
61742;BME280;47650;49.848;9.620;2023-12-20T02:10:01;99488.81;;;5.29;100.00
61742;BME280;47650;49.848;9.620;2023-12-20T02:12:26;99471.72;;;4.99;100.00
61742;BME280;47650;49.848;9.620;2023-12-20T02:14:52;99488.63;;;5.43;100.00
61742;BME280;47650;49.848;9.620;2023-12-20T02:17:19;99488.91;;;5.27;100.00
61742;BME280;47650;49.848;9.620;2023-12-20T02:19:44;99459.16;;;5.16;100.00
61742;BME280;47650;49.848;9.620;2023-12-20T02:22:14;99462.94;;;5.12;100.00
61742;BME280;47650;49.848;9.620;2023-12-20T02:24:39;99480.53;;;5.22;100.00
61742;BME280;47650;49.848;9.620;2023-12-20T02:27:07;99472.50;;;5.13;100.00
61742;BME280;47650;49.848;9.620;2023-12-20T02:29:33;99477.78;;;5.24;100.00
61742;BME280;47650;49.848;9.620;2023-12-20T02:32:00;99478.56;;;5.02;100.00
61742;BME280;47650;49.848;9.620;2023-12-20T02:34:26;99485.19;;;5.19;100.00
61742;BME280;47650;49.848;9.620;2023-12-20T02:36:51;99431.09;;;4.92;100.00
61742;BME280;47650;49.848;9.620;2023-12-20T02:39:18;99427.06;;;4.99;100.00
61742;BME280;47650;49.848;9.620;2023-12-20T02:41:45;99485.38;;;5.04;100.00
61742;BME280;47650;49.848;9.620;2023-12-20T02:44:10;99483.97;;;5.12;100.00
61742;BME280;47650;49.848;9.620;2023-12-20T02:46:36;99487.97;;;4.93;100.00
61742;BME280;47650;49.848;9.620;2023-12-20T02:49:02;99486.66;;;4.99;100.00
61742;BME280;47650;49.848;9.620;2023-12-20T02:51:29;99488.16;;;5.14;100.00
61742;BME280;47650;49.848;9.620;2023-12-20T02:53:54;99488.81;;;5.05;100.00
61742;BME280;47650;49.848;9.620;2023-12-20T02:56:20;99457.06;;;5.08;100.00
61742;BME280;47650;49.848;9.620;2023-12-20T02:58:45;99480.81;;;4.95;100.00
61742;BME280;47650;49.848;9.620;2023-12-20T03:01:10;99456.88;;;4.87;100.00
61742;BME280;47650;49.848;9.620;2023-12-20T03:03:35;99482.66;;;4.82;100.00
61742;BME280;47650;49.848;9.620;2023-12-20T03:06:01;99486.50;;;4.89;100.00
61742;BME280;47650;49.848;9.620;2023-12-20T03:08:26;99481.34;;;4.87;100.00
61742;BME280;47650;49.848;9.620;2023-12-20T03:10:51;99483.19;;;4.98;100.00
61742;BME280;47650;49.848;9.620;2023-12-20T03:13:18;99475.56;;;4.95;100.00
61742;BME280;47650;49.848;9.620;2023-12-20T03:15:43;99474.88;;;4.80;100.00
61742;BME280;47650;49.848;9.620;2023-12-20T03:18:08;99444.06;;;4.58;100.00
61742;BME280;47650;49.848;9.620;2023-12-20T03:20:34;99483.66;;;4.92;100.00
61742;BME280;47650;49.848;9.620;2023-12-20T03:23:03;99479.09;;;4.83;100.00
61742;BME280;47650;49.848;9.620;2023-12-20T03:25:32;99474.09;;;4.91;100.00
61742;BME280;47650;49.848;9.620;2023-12-20T03:27:57;99493.59;;;5.00;100.00
61742;BME280;47650;49.848;9.620;2023-12-20T03:30:22;99498.13;;;4.98;100.00
61742;BME280;47650;49.848;9.620;2023-12-20T03:32:48;99491.91;;;5.23;100.00
61742;BME280;47650;49.848;9.620;2023-12-20T03:35:13;99471.53;;;5.14;100.00
61742;BME280;47650;49.848;9.620;2023-12-20T03:37:38;99473.41;;;5.24;100.00
61742;BME280;47650;49.848;9.620;2023-12-20T03:40:04;99462.44;;;5.06;100.00
61742;BME280;47650;49.848;9.620;2023-12-20T03:42:30;99484.81;;;5.47;100.00
61742;BME280;47650;49.848;9.620;2023-12-20T03:44:55;99477.66;;;5.61;100.00
61742;BME280;47650;49.848;9.620;2023-12-20T03:47:21;99494.09;;;5.40;100.00
61742;BME280;47650;49.848;9.620;2023-12-20T03:49:48;99456.47;;;5.04;100.00
61742;BME280;47650;49.848;9.620;2023-12-20T03:52:15;99484.66;;;5.38;100.00
61742;BME280;47650;49.848;9.620;2023-12-20T03:54:40;99486.22;;;5.52;100.00
61742;BME280;47650;49.848;9.620;2023-12-20T03:57:07;99494.66;;;5.79;100.00
61742;BME280;47650;49.848;9.620;2023-12-20T03:59:36;99510.94;;;5.38;100.00
61742;BME280;47650;49.848;9.620;2023-12-20T04:02:02;99500.34;;;5.51;100.00
61742;BME280;47650;49.848;9.620;2023-12-20T04:04:28;99480.00;;;5.41;100.00
61742;BME280;47650;49.848;9.620;2023-12-20T04:06:53;99508.03;;;5.65;100.00
61742;BME280;47650;49.848;9.620;2023-12-20T04:09:18;99460.22;;;5.71;100.00
61742;BME280;47650;49.848;9.620;2023-12-20T04:11:44;99485.25;;;5.99;100.00
61742;BME280;47650;49.848;9.620;2023-12-20T04:14:09;99475.69;;;5.98;100.00
61742;BME280;47650;49.848;9.620;2023-12-20T04:16:36;99480.06;;;5.75;100.00
61742;BME280;47650;49.848;9.620;2023-12-20T04:19:04;99490.00;;;5.83;100.00
61742;BME280;47650;49.848;9.620;2023-12-20T04:21:29;99476.94;;;5.70;100.00
61742;BME280;47650;49.848;9.620;2023-12-20T04:23:54;99363.34;;;5.20;100.00
61742;BME280;47650;49.848;9.620;2023-12-20T04:26:20;99479.38;;;6.07;100.00
61742;BME280;47650;49.848;9.620;2023-12-20T04:28:46;99489.66;;;5.76;100.00
61742;BME280;47650;49.848;9.620;2023-12-20T04:31:12;99487.97;;;5.75;100.00
61742;BME280;47650;49.848;9.620;2023-12-20T04:33:37;99495.03;;;5.86;100.00
61742;BME280;47650;49.848;9.620;2023-12-20T04:36:03;99494.13;;;5.52;100.00
61742;BME280;47650;49.848;9.620;2023-12-20T04:38:29;99502.31;;;5.71;100.00
61742;BME280;47650;49.848;9.620;2023-12-20T04:40:55;99484.13;;;5.68;100.00
61742;BME280;47650;49.848;9.620;2023-12-20T04:43:20;99464.16;;;5.65;100.00
61742;BME280;47650;49.848;9.620;2023-12-20T04:45:45;99493.94;;;5.77;100.00
61742;BME280;47650;49.848;9.620;2023-12-20T04:48:10;99494.81;;;5.42;100.00
61742;BME280;47650;49.848;9.620;2023-12-20T04:50:36;99509.06;;;5.98;100.00
61742;BME280;47650;49.848;9.620;2023-12-20T04:53:01;99515.91;;;5.65;100.00
61742;BME280;47650;49.848;9.620;2023-12-20T04:55:26;99497.47;;;5.42;100.00
61742;BME280;47650;49.848;9.620;2023-12-20T04:57:52;99528.13;;;5.77;100.00
61742;BME280;47650;49.848;9.620;2023-12-20T05:00:17;99525.22;;;5.58;100.00
61742;BME280;47650;49.848;9.620;2023-12-20T05:02:43;99532.84;;;5.50;100.00
61742;BME280;47650;49.848;9.620;2023-12-20T05:05:08;99531.41;;;5.45;100.00
61742;BME280;47650;49.848;9.620;2023-12-20T05:07:33;99524.63;;;5.65;100.00
61742;BME280;47650;49.848;9.620;2023-12-20T05:09:59;99528.09;;;5.55;100.00
61742;BME280;47650;49.848;9.620;2023-12-20T05:12:24;99538.91;;;5.39;100.00
61742;BME280;47650;49.848;9.620;2023-12-20T05:14:51;99563.06;;;5.44;100.00
61742;BME280;47650;49.848;9.620;2023-12-20T05:17:18;99553.38;;;5.44;100.00
61742;BME280;47650;49.848;9.620;2023-12-20T05:19:45;99548.13;;;5.44;100.00
61742;BME280;47650;49.848;9.620;2023-12-20T05:22:10;99553.44;;;5.56;100.00
61742;BME280;47650;49.848;9.620;2023-12-20T05:24:36;99524.09;;;5.14;100.00
61742;BME280;47650;49.848;9.620;2023-12-20T05:27:02;99561.75;;;5.38;100.00
61742;BME280;47650;49.848;9.620;2023-12-20T05:29:28;99562.75;;;5.49;100.00
61742;BME280;47650;49.848;9.620;2023-12-20T05:31:53;99562.00;;;5.46;100.00
61742;BME280;47650;49.848;9.620;2023-12-20T05:34:20;99561.88;;;5.83;100.00
61742;BME280;47650;49.848;9.620;2023-12-20T05:36:46;99564.13;;;5.77;100.00
61742;BME280;47650;49.848;9.620;2023-12-20T05:39:11;99573.41;;;5.58;100.00
61742;BME280;47650;49.848;9.620;2023-12-20T05:41:37;99565.94;;;5.88;100.00
61742;BME280;47650;49.848;9.620;2023-12-20T05:44:03;99568.78;;;6.09;100.00
61742;BME280;47650;49.848;9.620;2023-12-20T05:46:29;99547.38;;;5.67;100.00
61742;BME280;47650;49.848;9.620;2023-12-20T05:48:54;99570.81;;;6.16;100.00
61742;BME280;47650;49.848;9.620;2023-12-20T05:51:21;99567.78;;;5.98;100.00
61742;BME280;47650;49.848;9.620;2023-12-20T05:53:46;99552.53;;;5.79;100.00
61742;BME280;47650;49.848;9.620;2023-12-20T05:56:11;99573.53;;;6.03;100.00
61742;BME280;47650;49.848;9.620;2023-12-20T05:58:38;99574.28;;;6.06;100.00
61742;BME280;47650;49.848;9.620;2023-12-20T06:01:05;99580.03;;;5.75;100.00
61742;BME280;47650;49.848;9.620;2023-12-20T06:03:31;99563.31;;;5.76;100.00
61742;BME280;47650;49.848;9.620;2023-12-20T06:05:57;99581.59;;;5.42;100.00
61742;BME280;47650;49.848;9.620;2023-12-20T06:08:22;99585.31;;;5.75;100.00
61742;BME280;47650;49.848;9.620;2023-12-20T06:10:48;99595.41;;;5.57;100.00
61742;BME280;47650;49.848;9.620;2023-12-20T06:13:13;99587.16;;;5.62;100.00
61742;BME280;47650;49.848;9.620;2023-12-20T06:15:39;99597.03;;;5.82;100.00
61742;BME280;47650;49.848;9.620;2023-12-20T06:18:05;99593.88;;;5.66;100.00
61742;BME280;47650;49.848;9.620;2023-12-20T06:20:30;99595.78;;;5.64;100.00
61742;BME280;47650;49.848;9.620;2023-12-20T06:22:56;99601.19;;;5.74;100.00
61742;BME280;47650;49.848;9.620;2023-12-20T06:25:21;99590.09;;;5.46;100.00
61742;BME280;47650;49.848;9.620;2023-12-20T06:27:46;99593.03;;;5.65;100.00
61742;BME280;47650;49.848;9.620;2023-12-20T06:30:12;99609.63;;;5.55;100.00
61742;BME280;47650;49.848;9.620;2023-12-20T06:32:37;99627.50;;;5.74;100.00
61742;BME280;47650;49.848;9.620;2023-12-20T06:35:04;99625.28;;;5.56;100.00
61742;BME280;47650;49.848;9.620;2023-12-20T06:37:31;99623.59;;;5.55;100.00
61742;BME280;47650;49.848;9.620;2023-12-20T06:39:57;99634.97;;;5.56;100.00
61742;BME280;47650;49.848;9.620;2023-12-20T06:42:22;99633.97;;;5.45;100.00
61742;BME280;47650;49.848;9.620;2023-12-20T06:44:49;99626.91;;;5.70;100.00
61742;BME280;47650;49.848;9.620;2023-12-20T06:47:14;99640.44;;;5.53;100.00
61742;BME280;47650;49.848;9.620;2023-12-20T06:49:40;99651.59;;;5.56;100.00
61742;BME280;47650;49.848;9.620;2023-12-20T06:52:05;99642.63;;;5.35;100.00
61742;BME280;47650;49.848;9.620;2023-12-20T06:54:31;99657.41;;;5.24;100.00
61742;BME280;47650;49.848;9.620;2023-12-20T06:56:56;99643.69;;;5.32;100.00
61742;BME280;47650;49.848;9.620;2023-12-20T06:59:21;99635.28;;;5.27;100.00
61742;BME280;47650;49.848;9.620;2023-12-20T07:01:49;99647.53;;;5.15;100.00
61742;BME280;47650;49.848;9.620;2023-12-20T07:04:15;99626.53;;;5.02;100.00
61742;BME280;47650;49.848;9.620;2023-12-20T07:06:41;99646.22;;;5.34;100.00
61742;BME280;47650;49.848;9.620;2023-12-20T07:09:08;99640.94;;;5.09;100.00
61742;BME280;47650;49.848;9.620;2023-12-20T07:11:33;99650.31;;;5.01;100.00
61742;BME280;47650;49.848;9.620;2023-12-20T07:13:58;99640.66;;;4.88;100.00
61742;BME280;47650;49.848;9.620;2023-12-20T07:16:23;99654.28;;;5.06;100.00
61742;BME280;47650;49.848;9.620;2023-12-20T07:18:49;99656.75;;;4.84;100.00
61742;BME280;47650;49.848;9.620;2023-12-20T07:21:15;99671.63;;;4.96;100.00
61742;BME280;47650;49.848;9.620;2023-12-20T07:23:40;99649.81;;;4.83;100.00
61742;BME280;47650;49.848;9.620;2023-12-20T07:26:06;99660.00;;;4.87;100.00
61742;BME280;47650;49.848;9.620;2023-12-20T07:28:31;99650.41;;;4.99;100.00
61742;BME280;47650;49.848;9.620;2023-12-20T07:30:57;99624.50;;;4.82;100.00
61742;BME280;47650;49.848;9.620;2023-12-20T07:33:22;99661.44;;;5.04;100.00
61742;BME280;47650;49.848;9.620;2023-12-20T07:35:47;99668.91;;;5.11;100.00
61742;BME280;47650;49.848;9.620;2023-12-20T07:38:12;99669.88;;;4.84;100.00
61742;BME280;47650;49.848;9.620;2023-12-20T07:40:38;99675.66;;;5.02;100.00
61742;BME280;47650;49.848;9.620;2023-12-20T07:43:04;99631.06;;;5.00;100.00
61742;BME280;47650;49.848;9.620;2023-12-20T07:45:29;99675.34;;;4.81;100.00
61742;BME280;47650;49.848;9.620;2023-12-20T07:47:55;99670.72;;;4.71;100.00
61742;BME280;47650;49.848;9.620;2023-12-20T07:50:20;99676.28;;;4.93;100.00
61742;BME280;47650;49.848;9.620;2023-12-20T07:52:46;99670.69;;;4.97;100.00
61742;BME280;47650;49.848;9.620;2023-12-20T07:55:11;99674.81;;;4.76;100.00
61742;BME280;47650;49.848;9.620;2023-12-20T07:57:36;99678.91;;;4.93;100.00
61742;BME280;47650;49.848;9.620;2023-12-20T08:00:02;99680.75;;;5.03;100.00
61742;BME280;47650;49.848;9.620;2023-12-20T08:02:28;99681.00;;;5.00;100.00
61742;BME280;47650;49.848;9.620;2023-12-20T08:04:54;99680.91;;;5.02;100.00
61742;BME280;47650;49.848;9.620;2023-12-20T08:07:19;99681.06;;;5.12;100.00
61742;BME280;47650;49.848;9.620;2023-12-20T08:09:44;99682.75;;;5.13;100.00
61742;BME280;47650;49.848;9.620;2023-12-20T08:12:10;99677.44;;;4.88;100.00
61742;BME280;47650;49.848;9.620;2023-12-20T08:14:36;99683.28;;;5.05;100.00
61742;BME280;47650;49.848;9.620;2023-12-20T08:17:01;99647.94;;;4.72;100.00
61742;BME280;47650;49.848;9.620;2023-12-20T08:19:30;99636.38;;;4.75;100.00
61742;BME280;47650;49.848;9.620;2023-12-20T08:21:57;99628.72;;;5.08;100.00
61742;BME280;47650;49.848;9.620;2023-12-20T08:24:23;99672.56;;;5.21;100.00
61742;BME280;47650;49.848;9.620;2023-12-20T08:26:49;99679.66;;;5.32;100.00
61742;BME280;47650;49.848;9.620;2023-12-20T08:29:15;99680.19;;;5.61;100.00
61742;BME280;47650;49.848;9.620;2023-12-20T08:31:40;99639.44;;;5.42;100.00
61742;BME280;47650;49.848;9.620;2023-12-20T08:34:06;99694.00;;;5.15;100.00
61742;BME280;47650;49.848;9.620;2023-12-20T08:36:31;99688.44;;;5.19;100.00
61742;BME280;47650;49.848;9.620;2023-12-20T08:38:56;99700.44;;;5.47;100.00
61742;BME280;47650;49.848;9.620;2023-12-20T08:41:22;99697.41;;;5.65;100.00
61742;BME280;47650;49.848;9.620;2023-12-20T08:43:47;99696.63;;;5.15;100.00
61742;BME280;47650;49.848;9.620;2023-12-20T08:46:14;99696.38;;;5.31;100.00
61742;BME280;47650;49.848;9.620;2023-12-20T08:48:39;99693.97;;;5.52;100.00
61742;BME280;47650;49.848;9.620;2023-12-20T08:51:04;99695.56;;;5.54;100.00
61742;BME280;47650;49.848;9.620;2023-12-20T08:53:32;99682.63;;;5.75;100.00
61742;BME280;47650;49.848;9.620;2023-12-20T08:55:58;99699.44;;;6.68;100.00
61742;BME280;47650;49.848;9.620;2023-12-20T08:58:26;99709.84;;;6.58;100.00
61742;BME280;47650;49.848;9.620;2023-12-20T09:00:51;99670.69;;;6.99;100.00
61742;BME280;47650;49.848;9.620;2023-12-20T09:03:17;99705.44;;;7.04;100.00
61742;BME280;47650;49.848;9.620;2023-12-20T09:05:42;99687.03;;;7.91;97.88
61742;BME280;47650;49.848;9.620;2023-12-20T09:08:07;99668.91;;;8.61;92.96
61742;BME280;47650;49.848;9.620;2023-12-20T09:10:35;99686.59;;;8.91;91.26
61742;BME280;47650;49.848;9.620;2023-12-20T09:13:00;99688.44;;;8.27;91.49
61742;BME280;47650;49.848;9.620;2023-12-20T09:15:26;99672.03;;;7.91;96.47
61742;BME280;47650;49.848;9.620;2023-12-20T09:17:52;99696.59;;;7.05;100.00
61742;BME280;47650;49.848;9.620;2023-12-20T09:20:17;99701.25;;;7.12;100.00
61742;BME280;47650;49.848;9.620;2023-12-20T09:22:42;99700.53;;;6.65;100.00
61742;BME280;47650;49.848;9.620;2023-12-20T09:25:10;99710.69;;;6.12;100.00
61742;BME280;47650;49.848;9.620;2023-12-20T09:27:36;99715.06;;;6.00;100.00
61742;BME280;47650;49.848;9.620;2023-12-20T09:30:01;99713.28;;;6.00;100.00
61742;BME280;47650;49.848;9.620;2023-12-20T09:32:26;99709.25;;;5.95;100.00
61742;BME280;47650;49.848;9.620;2023-12-20T09:34:52;99712.28;;;6.26;100.00
61742;BME280;47650;49.848;9.620;2023-12-20T09:37:17;99725.06;;;6.66;100.00
61742;BME280;47650;49.848;9.620;2023-12-20T09:39:42;99728.19;;;6.93;100.00
61742;BME280;47650;49.848;9.620;2023-12-20T09:42:11;99715.28;;;7.13;100.00
61742;BME280;47650;49.848;9.620;2023-12-20T09:44:37;99709.00;;;6.46;100.00
61742;BME280;47650;49.848;9.620;2023-12-20T09:47:06;99710.72;;;7.04;100.00
61742;BME280;47650;49.848;9.620;2023-12-20T09:49:32;99704.00;;;7.11;100.00
61742;BME280;47650;49.848;9.620;2023-12-20T09:51:59;99727.59;;;6.67;100.00
61742;BME280;47650;49.848;9.620;2023-12-20T09:54:27;99704.00;;;7.11;100.00
61742;BME280;47650;49.848;9.620;2023-12-20T09:56:53;99693.56;;;6.53;100.00
61742;BME280;47650;49.848;9.620;2023-12-20T09:59:19;99709.81;;;6.35;100.00
61742;BME280;47650;49.848;9.620;2023-12-20T10:01:44;99714.59;;;6.30;100.00
61742;BME280;47650;49.848;9.620;2023-12-20T10:04:10;99713.31;;;6.47;100.00
61742;BME280;47650;49.848;9.620;2023-12-20T10:06:42;99706.88;;;6.74;100.00
61742;BME280;47650;49.848;9.620;2023-12-20T10:09:09;99690.34;;;7.06;100.00
61742;BME280;47650;49.848;9.620;2023-12-20T10:11:36;99683.16;;;7.19;100.00
61742;BME280;47650;49.848;9.620;2023-12-20T10:14:05;99702.56;;;6.95;100.00
61742;BME280;47650;49.848;9.620;2023-12-20T10:16:31;99693.59;;;6.98;100.00
61742;BME280;47650;49.848;9.620;2023-12-20T10:18:57;99687.22;;;7.01;100.00
61742;BME280;47650;49.848;9.620;2023-12-20T10:21:23;99684.47;;;7.02;100.00
61742;BME280;47650;49.848;9.620;2023-12-20T10:23:49;99694.78;;;6.94;100.00
61742;BME280;47650;49.848;9.620;2023-12-20T10:28:50;99693.06;;;6.48;100.00
61742;BME280;47650;49.848;9.620;2023-12-20T10:33:51;99619.91;;;6.63;100.00
61742;BME280;47650;49.848;9.620;2023-12-20T10:36:16;99679.31;;;6.78;100.00
61742;BME280;47650;49.848;9.620;2023-12-20T10:38:42;99670.94;;;6.62;100.00
61742;BME280;47650;49.848;9.620;2023-12-20T10:41:08;99677.53;;;6.67;100.00
61742;BME280;47650;49.848;9.620;2023-12-20T10:43:35;99657.75;;;6.50;100.00
61742;BME280;47650;49.848;9.620;2023-12-20T10:46:03;99645.53;;;6.38;100.00
61742;BME280;47650;49.848;9.620;2023-12-20T10:48:30;99657.03;;;6.71;100.00
61742;BME280;47650;49.848;9.620;2023-12-20T10:50:57;99663.97;;;6.61;100.00
61742;BME280;47650;49.848;9.620;2023-12-20T10:53:24;99667.34;;;6.63;100.00
61742;BME280;47650;49.848;9.620;2023-12-20T10:55:52;99665.75;;;6.49;100.00
61742;BME280;47650;49.848;9.620;2023-12-20T10:58:20;99651.31;;;6.77;100.00
61742;BME280;47650;49.848;9.620;2023-12-20T11:00:47;99653.22;;;6.64;100.00
61742;BME280;47650;49.848;9.620;2023-12-20T11:03:17;99645.91;;;6.78;100.00
61742;BME280;47650;49.848;9.620;2023-12-20T11:09:17;99657.41;;;6.66;100.00
61742;BME280;47650;49.848;9.620;2023-12-20T11:11:45;99663.28;;;6.70;100.00
61742;BME280;47650;49.848;9.620;2023-12-20T11:14:20;99655.88;;;6.75;100.00
61742;BME280;47650;49.848;9.620;2023-12-20T11:16:47;99642.78;;;6.96;100.00
61742;BME280;47650;49.848;9.620;2023-12-20T11:19:12;99644.81;;;6.58;100.00
61742;BME280;47650;49.848;9.620;2023-12-20T11:21:41;99622.31;;;6.77;100.00
61742;BME280;47650;49.848;9.620;2023-12-20T11:24:06;99625.44;;;6.71;100.00
61742;BME280;47650;49.848;9.620;2023-12-20T11:26:31;99645.00;;;7.34;100.00
61742;BME280;47650;49.848;9.620;2023-12-20T11:29:31;99643.97;;;7.03;100.00
61742;BME280;47650;49.848;9.620;2023-12-20T11:32:03;99627.53;;;7.11;98.83
61742;BME280;47650;49.848;9.620;2023-12-20T11:34:33;99629.97;;;6.91;100.00
61742;BME280;47650;49.848;9.620;2023-12-20T11:37:02;99626.84;;;6.86;100.00
61742;BME280;47650;49.848;9.620;2023-12-20T11:39:28;99616.31;;;6.97;98.35
61742;BME280;47650;49.848;9.620;2023-12-20T11:41:56;99624.06;;;7.22;96.79
61742;BME280;47650;49.848;9.620;2023-12-20T11:44:22;99619.97;;;7.29;96.58
61742;BME280;47650;49.848;9.620;2023-12-20T11:46:48;99590.44;;;7.03;94.92
61742;BME280;47650;49.848;9.620;2023-12-20T11:49:13;99632.72;;;6.90;98.28
61742;BME280;47650;49.848;9.620;2023-12-20T11:51:41;99584.94;;;6.83;94.23
61742;BME280;47650;49.848;9.620;2023-12-20T11:54:07;99551.84;;;7.02;93.74
61742;BME280;47650;49.848;9.620;2023-12-20T11:56:35;99608.44;;;7.30;93.43
61742;BME280;47650;49.848;9.620;2023-12-20T11:59:00;99612.66;;;8.07;87.25
61742;BME280;47650;49.848;9.620;2023-12-20T12:01:27;99608.59;;;9.46;78.15
61742;BME280;47650;49.848;9.620;2023-12-20T12:04:05;99590.19;;;10.12;70.25
61742;BME280;47650;49.848;9.620;2023-12-20T12:06:31;99575.94;;;10.13;68.87
61742;BME280;47650;49.848;9.620;2023-12-20T12:08:57;99564.78;;;11.13;63.38
61742;BME280;47650;49.848;9.620;2023-12-20T12:11:22;99587.69;;;9.91;66.60
61742;BME280;47650;49.848;9.620;2023-12-20T12:13:49;99577.94;;;9.82;68.77
61742;BME280;47650;49.848;9.620;2023-12-20T12:16:18;99565.97;;;11.00;64.51
61742;BME280;47650;49.848;9.620;2023-12-20T12:18:44;99576.75;;;10.24;65.52
61742;BME280;47650;49.848;9.620;2023-12-20T12:21:10;99532.38;;;9.88;65.18
61742;BME280;47650;49.848;9.620;2023-12-20T12:23:35;99571.09;;;10.56;62.98
61742;BME280;47650;49.848;9.620;2023-12-20T12:26:03;99582.84;;;9.48;66.68
61742;BME280;47650;49.848;9.620;2023-12-20T12:28:29;99561.41;;;9.60;66.05
61742;BME280;47650;49.848;9.620;2023-12-20T12:30:59;99568.63;;;9.78;65.76
61742;BME280;47650;49.848;9.620;2023-12-20T12:33:25;99558.53;;;10.11;63.66
61742;BME280;47650;49.848;9.620;2023-12-20T12:35:51;99521.28;;;9.36;65.08
61742;BME280;47650;49.848;9.620;2023-12-20T12:38:21;99579.75;;;9.72;64.70
61742;BME280;47650;49.848;9.620;2023-12-20T12:40:47;99581.78;;;8.50;70.50
61742;BME280;47650;49.848;9.620;2023-12-20T12:43:13;99552.63;;;8.61;72.56
61742;BME280;47650;49.848;9.620;2023-12-20T12:45:41;99564.88;;;8.72;72.16
61742;BME280;47650;49.848;9.620;2023-12-20T12:48:07;99569.16;;;9.03;68.63
61742;BME280;47650;49.848;9.620;2023-12-20T12:50:32;99564.78;;;8.42;72.59
61742;BME280;47650;49.848;9.620;2023-12-20T12:52:57;99571.09;;;8.30;75.04
61742;BME280;47650;49.848;9.620;2023-12-20T12:55:23;99569.56;;;7.85;77.92
61742;BME280;47650;49.848;9.620;2023-12-20T12:57:48;99582.34;;;8.01;77.75
61742;BME280;47650;49.848;9.620;2023-12-20T13:00:14;99561.34;;;9.02;71.55
61742;BME280;47650;49.848;9.620;2023-12-20T13:02:39;99572.16;;;7.76;76.60
61742;BME280;47650;49.848;9.620;2023-12-20T13:05:07;99594.38;;;7.94;77.65